sensor_id;sensor_type;location;lat;lon;timestamp;pressure;altitude;pressure_sealevel;temperature;humidity
77311;BME280;66371;52.714;5.074;2023-04-01T00:01:43;99100.53;;;9.38;100.00
77311;BME280;66371;52.714;5.074;2023-04-01T00:04:09;99128.13;;;9.51;100.00
77311;BME280;66371;52.714;5.074;2023-04-01T00:06:34;99130.53;;;9.46;100.00
77311;BME280;66371;52.714;5.074;2023-04-01T00:09:00;99137.59;;;9.54;100.00
77311;BME280;66371;52.714;5.074;2023-04-01T00:11:25;99138.59;;;9.53;100.00
77311;BME280;66371;52.714;5.074;2023-04-01T00:13:52;99132.84;;;9.49;100.00
77311;BME280;66371;52.714;5.074;2023-04-01T00:16:18;99133.00;;;9.48;100.00
77311;BME280;66371;52.714;5.074;2023-04-01T00:18:43;99137.94;;;9.44;100.00
77311;BME280;66371;52.714;5.074;2023-04-01T00:21:09;99128.41;;;9.35;100.00
77311;BME280;66371;52.714;5.074;2023-04-01T00:23:34;99140.41;;;9.46;100.00
77311;BME280;66371;52.714;5.074;2023-04-01T00:26:00;99140.78;;;9.43;100.00
77311;BME280;66371;52.714;5.074;2023-04-01T00:28:27;99144.25;;;9.43;100.00
77311;BME280;66371;52.714;5.074;2023-04-01T00:30:52;99156.97;;;9.41;100.00
77311;BME280;66371;52.714;5.074;2023-04-01T00:33:18;99151.00;;;9.39;100.00
77311;BME280;66371;52.714;5.074;2023-04-01T00:35:44;99153.66;;;9.39;100.00
77311;BME280;66371;52.714;5.074;2023-04-01T00:38:10;99151.84;;;9.40;100.00
77311;BME280;66371;52.714;5.074;2023-04-01T00:40:46;99141.94;;;9.34;100.00
77311;BME280;66371;52.714;5.074;2023-04-01T00:43:13;99165.78;;;9.42;100.00
77311;BME280;66371;52.714;5.074;2023-04-01T00:45:42;99154.31;;;9.41;100.00
77311;BME280;66371;52.714;5.074;2023-04-01T00:48:12;99138.84;;;9.30;100.00
77311;BME280;66371;52.714;5.074;2023-04-01T00:50:40;99157.38;;;9.38;100.00
77311;BME280;66371;52.714;5.074;2023-04-01T00:53:08;99165.75;;;9.35;100.00
77311;BME280;66371;52.714;5.074;2023-04-01T00:55:38;99158.16;;;9.32;100.00
77311;BME280;66371;52.714;5.074;2023-04-01T00:58:05;99155.88;;;9.29;100.00
77311;BME280;66371;52.714;5.074;2023-04-01T01:03:08;99165.25;;;9.25;100.00
77311;BME280;66371;52.714;5.074;2023-04-01T01:05:49;99147.31;;;9.13;100.00
77311;BME280;66371;52.714;5.074;2023-04-01T01:08:33;99153.25;;;9.15;100.00
77311;BME280;66371;52.714;5.074;2023-04-01T01:11:05;99139.19;;;9.00;100.00
77311;BME280;66371;52.714;5.074;2023-04-01T01:13:56;99170.28;;;9.14;100.00
77311;BME280;66371;52.714;5.074;2023-04-01T01:16:32;99177.06;;;9.16;100.00
77311;BME280;66371;52.714;5.074;2023-04-01T01:24:30;99195.91;;;9.15;100.00
77311;BME280;66371;52.714;5.074;2023-04-01T01:27:11;99194.47;;;9.12;100.00
77311;BME280;66371;52.714;5.074;2023-04-01T01:37:32;99190.09;;;9.05;100.00
77311;BME280;66371;52.714;5.074;2023-04-01T01:40:02;99181.63;;;9.01;100.00
77311;BME280;66371;52.714;5.074;2023-04-01T01:42:30;99195.22;;;9.06;100.00
77311;BME280;66371;52.714;5.074;2023-04-01T01:44:57;99201.63;;;9.12;100.00
77311;BME280;66371;52.714;5.074;2023-04-01T01:47:25;99204.47;;;9.10;100.00
77311;BME280;66371;52.714;5.074;2023-04-01T01:49:53;99202.56;;;9.04;100.00
77311;BME280;66371;52.714;5.074;2023-04-01T01:52:21;99211.69;;;9.10;100.00
77311;BME280;66371;52.714;5.074;2023-04-01T01:54:52;99202.78;;;9.03;100.00
77311;BME280;66371;52.714;5.074;2023-04-01T01:57:20;99213.50;;;9.09;100.00
77311;BME280;66371;52.714;5.074;2023-04-01T01:59:48;99221.69;;;9.08;100.00
77311;BME280;66371;52.714;5.074;2023-04-01T02:02:15;99219.03;;;9.08;100.00
77311;BME280;66371;52.714;5.074;2023-04-01T02:04:43;99199.59;;;8.93;100.00
77311;BME280;66371;52.714;5.074;2023-04-01T02:07:14;99226.94;;;9.01;100.00
77311;BME280;66371;52.714;5.074;2023-04-01T02:09:42;99236.66;;;9.09;100.00
77311;BME280;66371;52.714;5.074;2023-04-01T02:12:10;99231.53;;;9.07;100.00
77311;BME280;66371;52.714;5.074;2023-04-01T02:14:52;99220.59;;;9.02;100.00
77311;BME280;66371;52.714;5.074;2023-04-01T02:17:20;99242.84;;;9.09;100.00
77311;BME280;66371;52.714;5.074;2023-04-01T02:19:53;99250.19;;;9.07;100.00
77311;BME280;66371;52.714;5.074;2023-04-01T02:22:24;99250.75;;;9.03;100.00
77311;BME280;66371;52.714;5.074;2023-04-01T02:24:53;99255.25;;;9.02;100.00
77311;BME280;66371;52.714;5.074;2023-04-01T02:27:19;99264.44;;;9.00;100.00
77311;BME280;66371;52.714;5.074;2023-04-01T02:29:45;99255.94;;;8.89;100.00
77311;BME280;66371;52.714;5.074;2023-04-01T02:32:12;99266.28;;;8.99;100.00
77311;BME280;66371;52.714;5.074;2023-04-01T02:34:38;99247.69;;;8.84;100.00
77311;BME280;66371;52.714;5.074;2023-04-01T02:37:04;99269.31;;;8.96;100.00
77311;BME280;66371;52.714;5.074;2023-04-01T02:39:30;99256.38;;;8.93;100.00
77311;BME280;66371;52.714;5.074;2023-04-01T02:41:55;99270.16;;;8.97;100.00
77311;BME280;66371;52.714;5.074;2023-04-01T02:44:21;99281.53;;;9.05;100.00
77311;BME280;66371;52.714;5.074;2023-04-01T02:46:46;99283.56;;;9.03;100.00
77311;BME280;66371;52.714;5.074;2023-04-01T02:49:12;99281.53;;;9.05;100.00
77311;BME280;66371;52.714;5.074;2023-04-01T02:51:37;99261.28;;;8.89;100.00
77311;BME280;66371;52.714;5.074;2023-04-01T02:54:02;99289.13;;;9.08;100.00
77311;BME280;66371;52.714;5.074;2023-04-01T02:56:28;99290.72;;;9.03;100.00
77311;BME280;66371;52.714;5.074;2023-04-01T02:58:53;99295.13;;;9.10;100.00
77311;BME280;66371;52.714;5.074;2023-04-01T03:01:19;99298.44;;;9.12;100.00
77311;BME280;66371;52.714;5.074;2023-04-01T03:03:45;99304.97;;;9.10;100.00
77311;BME280;66371;52.714;5.074;2023-04-01T03:06:13;99290.28;;;8.99;100.00
77311;BME280;66371;52.714;5.074;2023-04-01T03:08:39;99306.16;;;9.07;100.00
77311;BME280;66371;52.714;5.074;2023-04-01T03:11:05;99307.66;;;9.10;100.00
77311;BME280;66371;52.714;5.074;2023-04-01T03:13:31;99315.78;;;9.08;100.00
77311;BME280;66371;52.714;5.074;2023-04-01T03:15:56;99315.63;;;9.10;100.00
77311;BME280;66371;52.714;5.074;2023-04-01T03:18:22;99315.97;;;9.07;100.00
77311;BME280;66371;52.714;5.074;2023-04-01T03:20:47;99333.28;;;9.11;100.00
77311;BME280;66371;52.714;5.074;2023-04-01T03:23:13;99329.97;;;9.09;100.00
77311;BME280;66371;52.714;5.074;2023-04-01T03:25:38;99338.59;;;9.11;100.00
77311;BME280;66371;52.714;5.074;2023-04-01T03:28:03;99346.78;;;9.09;100.00
77311;BME280;66371;52.714;5.074;2023-04-01T03:30:29;99324.53;;;9.02;100.00
77311;BME280;66371;52.714;5.074;2023-04-01T03:32:59;99348.06;;;9.13;100.00
77311;BME280;66371;52.714;5.074;2023-04-01T03:35:26;99361.03;;;9.16;100.00
77311;BME280;66371;52.714;5.074;2023-04-01T03:37:53;99364.72;;;9.15;100.00
77311;BME280;66371;52.714;5.074;2023-04-01T03:40:19;99362.41;;;9.12;100.00
77311;BME280;66371;52.714;5.074;2023-04-01T03:42:45;99365.34;;;9.17;100.00
77311;BME280;66371;52.714;5.074;2023-04-01T03:45:11;99355.78;;;9.08;100.00
77311;BME280;66371;52.714;5.074;2023-04-01T03:47:38;99360.59;;;9.13;100.00
77311;BME280;66371;52.714;5.074;2023-04-01T03:50:04;99360.50;;;9.06;100.00
77311;BME280;66371;52.714;5.074;2023-04-01T03:52:30;99369.19;;;9.15;100.00
77311;BME280;66371;52.714;5.074;2023-04-01T03:54:56;99369.38;;;9.13;100.00
77311;BME280;66371;52.714;5.074;2023-04-01T03:57:21;99382.16;;;9.18;100.00
77311;BME280;66371;52.714;5.074;2023-04-01T03:59:46;99381.16;;;9.19;100.00
77311;BME280;66371;52.714;5.074;2023-04-01T04:02:12;99380.97;;;9.20;100.00
77311;BME280;66371;52.714;5.074;2023-04-01T04:04:37;99386.69;;;9.17;100.00
77311;BME280;66371;52.714;5.074;2023-04-01T04:07:02;99389.53;;;9.16;100.00
77311;BME280;66371;52.714;5.074;2023-04-01T04:09:30;99389.06;;;9.12;100.00
77311;BME280;66371;52.714;5.074;2023-04-01T04:11:55;99380.63;;;9.09;100.00
77311;BME280;66371;52.714;5.074;2023-04-01T04:14:22;99391.28;;;9.09;100.00
77311;BME280;66371;52.714;5.074;2023-04-01T04:16:47;99399.56;;;9.14;100.00
77311;BME280;66371;52.714;5.074;2023-04-01T04:19:13;99405.06;;;9.12;100.00
77311;BME280;66371;52.714;5.074;2023-04-01T04:21:40;99408.56;;;9.13;100.00
77311;BME280;66371;52.714;5.074;2023-04-01T04:24:05;99400.84;;;9.03;100.00
77311;BME280;66371;52.714;5.074;2023-04-01T04:26:31;99415.28;;;9.09;100.00
77311;BME280;66371;52.714;5.074;2023-04-01T04:28:56;99418.78;;;9.09;100.00
77311;BME280;66371;52.714;5.074;2023-04-01T04:31:23;99421.81;;;9.06;100.00
77311;BME280;66371;52.714;5.074;2023-04-01T04:33:48;99420.22;;;9.12;100.00
77311;BME280;66371;52.714;5.074;2023-04-01T04:36:14;99423.91;;;9.11;100.00
77311;BME280;66371;52.714;5.074;2023-04-01T04:38:40;99438.72;;;9.13;100.00
77311;BME280;66371;52.714;5.074;2023-04-01T04:41:16;99429.16;;;9.04;100.00
77311;BME280;66371;52.714;5.074;2023-04-01T04:43:48;99433.28;;;9.07;100.00
77311;BME280;66371;52.714;5.074;2023-04-01T04:46:14;99433.84;;;9.02;100.00
77311;BME280;66371;52.714;5.074;2023-04-01T04:48:40;99448.56;;;9.13;100.00
77311;BME280;66371;52.714;5.074;2023-04-01T04:51:06;99455.72;;;9.12;100.00
77311;BME280;66371;52.714;5.074;2023-04-01T04:53:32;99452.69;;;9.15;100.00
77311;BME280;66371;52.714;5.074;2023-04-01T04:55:57;99460.41;;;9.10;100.00
77311;BME280;66371;52.714;5.074;2023-04-01T04:58:22;99463.72;;;9.12;100.00
77311;BME280;66371;52.714;5.074;2023-04-01T05:00:47;99465.00;;;9.16;100.00
77311;BME280;66371;52.714;5.074;2023-04-01T05:03:13;99477.34;;;9.17;100.00
77311;BME280;66371;52.714;5.074;2023-04-01T05:05:39;99474.50;;;9.19;100.00
77311;BME280;66371;52.714;5.074;2023-04-01T05:08:05;99482.19;;;9.14;100.00
77311;BME280;66371;52.714;5.074;2023-04-01T05:10:31;99487.53;;;9.14;100.00
77311;BME280;66371;52.714;5.074;2023-04-01T05:12:57;99494.31;;;9.16;100.00
77311;BME280;66371;52.714;5.074;2023-04-01T05:15:23;99483.59;;;9.10;100.00
77311;BME280;66371;52.714;5.074;2023-04-01T05:17:48;99497.34;;;9.13;100.00
77311;BME280;66371;52.714;5.074;2023-04-01T05:20:14;99510.63;;;9.21;100.00
77311;BME280;66371;52.714;5.074;2023-04-01T05:22:39;99504.09;;;9.09;100.00
77311;BME280;66371;52.714;5.074;2023-04-01T05:25:05;99512.38;;;9.14;100.00
77311;BME280;66371;52.714;5.074;2023-04-01T05:27:31;99519.53;;;9.14;100.00
77311;BME280;66371;52.714;5.074;2023-04-01T05:29:57;99516.22;;;9.12;100.00
77311;BME280;66371;52.714;5.074;2023-04-01T05:32:22;99530.66;;;9.17;100.00
77311;BME280;66371;52.714;5.074;2023-04-01T05:34:50;99526.97;;;9.18;100.00
77311;BME280;66371;52.714;5.074;2023-04-01T05:37:15;99520.91;;;9.10;100.00
77311;BME280;66371;52.714;5.074;2023-04-01T05:39:40;99522.81;;;9.01;100.00
77311;BME280;66371;52.714;5.074;2023-04-01T05:42:06;99540.69;;;9.15;100.00
77311;BME280;66371;52.714;5.074;2023-04-01T05:44:33;99537.66;;;9.18;100.00
77311;BME280;66371;52.714;5.074;2023-04-01T05:46:58;99544.19;;;9.16;100.00
77311;BME280;66371;52.714;5.074;2023-04-01T05:49:24;99556.78;;;9.22;100.00
77311;BME280;66371;52.714;5.074;2023-04-01T05:51:49;99562.19;;;9.28;100.00
77311;BME280;66371;52.714;5.074;2023-04-01T05:54:16;99563.03;;;9.29;100.00
77311;BME280;66371;52.714;5.074;2023-04-01T05:56:41;99550.44;;;9.23;100.00
77311;BME280;66371;52.714;5.074;2023-04-01T05:59:06;99562.84;;;9.30;100.00
77311;BME280;66371;52.714;5.074;2023-04-01T06:01:32;99568.34;;;9.29;100.00
77311;BME280;66371;52.714;5.074;2023-04-01T06:03:57;99570.19;;;9.28;100.00
77311;BME280;66371;52.714;5.074;2023-04-01T06:06:27;99573.88;;;9.27;100.00
77311;BME280;66371;52.714;5.074;2023-04-01T06:08:56;99554.66;;;9.17;100.00
77311;BME280;66371;52.714;5.074;2023-04-01T06:11:35;99591.53;;;9.28;100.00
77311;BME280;66371;52.714;5.074;2023-04-01T06:14:27;99574.59;;;9.21;100.00
77311;BME280;66371;52.714;5.074;2023-04-01T06:22:53;99593.75;;;9.25;100.00
77311;BME280;66371;52.714;5.074;2023-04-01T06:53:48;99645.34;;;9.46;100.00
77311;BME280;66371;52.714;5.074;2023-04-01T06:56:17;99630.44;;;9.37;100.00
77311;BME280;66371;52.714;5.074;2023-04-01T06:58:53;99654.31;;;9.53;100.00
77311;BME280;66371;52.714;5.074;2023-04-01T07:01:23;99641.97;;;9.52;100.00
77311;BME280;66371;52.714;5.074;2023-04-01T07:04:06;99646.19;;;9.47;100.00
77311;BME280;66371;52.714;5.074;2023-04-01T07:09:11;99663.88;;;9.62;100.00
77311;BME280;66371;52.714;5.074;2023-04-01T07:11:39;99659.63;;;9.53;100.00
77311;BME280;66371;52.714;5.074;2023-04-01T07:16:54;99661.75;;;9.58;100.00
77311;BME280;66371;52.714;5.074;2023-04-01T07:22:00;99696.09;;;9.75;100.00
77311;BME280;66371;52.714;5.074;2023-04-01T07:24:46;99691.28;;;9.71;100.00
77311;BME280;66371;52.714;5.074;2023-04-01T07:27:13;99682.63;;;9.54;100.00
77311;BME280;66371;52.714;5.074;2023-04-01T07:29:39;99702.25;;;9.76;100.00
77311;BME280;66371;52.714;5.074;2023-04-01T07:32:17;99706.22;;;9.65;100.00
77311;BME280;66371;52.714;5.074;2023-04-01T07:35:12;99709.53;;;9.67;100.00
77311;BME280;66371;52.714;5.074;2023-04-01T07:42:57;99730.91;;;9.82;99.92
77311;BME280;66371;52.714;5.074;2023-04-01T07:53:41;99746.03;;;10.04;98.89
77311;BME280;66371;52.714;5.074;2023-04-01T07:58:53;99744.53;;;10.01;99.28
77311;BME280;66371;52.714;5.074;2023-04-01T08:07:06;99757.25;;;9.99;97.99
77311;BME280;66371;52.714;5.074;2023-04-01T08:12:27;99764.13;;;9.94;97.69
77311;BME280;66371;52.714;5.074;2023-04-01T08:15:04;99777.78;;;9.99;97.81
77311;BME280;66371;52.714;5.074;2023-04-01T08:22:53;99788.94;;;10.02;98.31
77311;BME280;66371;52.714;5.074;2023-04-01T08:25:27;99792.38;;;10.11;98.30
77311;BME280;66371;52.714;5.074;2023-04-01T08:28:02;99788.50;;;10.13;97.71
77311;BME280;66371;52.714;5.074;2023-04-01T08:35:53;99803.06;;;10.11;97.62
77311;BME280;66371;52.714;5.074;2023-04-01T08:47:20;99813.50;;;9.98;97.83
77311;BME280;66371;52.714;5.074;2023-04-01T08:50:17;99817.59;;;9.86;98.57
77311;BME280;66371;52.714;5.074;2023-04-01T08:53:06;99825.19;;;9.97;99.08
77311;BME280;66371;52.714;5.074;2023-04-01T08:58:32;99836.13;;;10.10;99.43
77311;BME280;66371;52.714;5.074;2023-04-01T09:01:11;99837.69;;;10.19;99.22
77311;BME280;66371;52.714;5.074;2023-04-01T09:06:31;99844.63;;;10.42;98.48
77311;BME280;66371;52.714;5.074;2023-04-01T09:09:29;99814.69;;;10.32;98.33
77311;BME280;66371;52.714;5.074;2023-04-01T09:12:22;99852.28;;;10.60;98.22
77311;BME280;66371;52.714;5.074;2023-04-01T09:15:24;99851.75;;;10.64;98.16
77311;BME280;66371;52.714;5.074;2023-04-01T09:18:10;99854.59;;;10.78;97.52
77311;BME280;66371;52.714;5.074;2023-04-01T09:23:47;99873.94;;;10.80;96.28
77311;BME280;66371;52.714;5.074;2023-04-01T09:29:22;99871.44;;;10.93;95.88
77311;BME280;66371;52.714;5.074;2023-04-01T09:43:22;99892.28;;;10.53;96.32
77311;BME280;66371;52.714;5.074;2023-04-01T09:51:37;99896.78;;;10.53;96.93
77311;BME280;66371;52.714;5.074;2023-04-01T10:02:50;99920.47;;;10.41;97.66
77311;BME280;66371;52.714;5.074;2023-04-01T10:13:53;99941.69;;;10.20;97.56
77311;BME280;66371;52.714;5.074;2023-04-01T10:44:40;99966.66;;;10.27;96.49
77311;BME280;66371;52.714;5.074;2023-04-01T10:56:06;99979.06;;;10.43;95.12
77311;BME280;66371;52.714;5.074;2023-04-01T11:07:52;99985.75;;;10.76;94.58
77311;BME280;66371;52.714;5.074;2023-04-01T11:16:39;100001.00;;;10.90;92.38
77311;BME280;66371;52.714;5.074;2023-04-01T11:24:16;100011.88;;;11.03;91.65
77311;BME280;66371;52.714;5.074;2023-04-01T11:27:00;100020.00;;;10.95;90.93
77311;BME280;66371;52.714;5.074;2023-04-01T11:29:48;100005.88;;;10.87;91.85
77311;BME280;66371;52.714;5.074;2023-04-01T11:35:42;100038.59;;;10.74;92.48
77311;BME280;66371;52.714;5.074;2023-04-01T11:43:49;100057.66;;;10.26;93.08
77311;BME280;66371;52.714;5.074;2023-04-01T11:49:36;100071.63;;;10.05;95.00
77311;BME280;66371;52.714;5.074;2023-04-01T12:00:14;100081.38;;;9.90;96.23
77311;BME280;66371;52.714;5.074;2023-04-01T12:11:00;100098.03;;;9.92;96.38
77311;BME280;66371;52.714;5.074;2023-04-01T12:19:09;100100.06;;;9.90;95.66
77311;BME280;66371;52.714;5.074;2023-04-01T12:22:12;100118.84;;;10.05;95.49
77311;BME280;66371;52.714;5.074;2023-04-01T12:27:31;100126.03;;;10.12;95.58
77311;BME280;66371;52.714;5.074;2023-04-01T12:35:58;100122.16;;;9.76;94.45
77311;BME280;66371;52.714;5.074;2023-04-01T12:41:54;100156.16;;;9.82;95.19
77311;BME280;66371;52.714;5.074;2023-04-01T12:53:17;100160.50;;;9.75;95.87
77311;BME280;66371;52.714;5.074;2023-04-01T12:55:51;100164.69;;;9.70;96.27
77311;BME280;66371;52.714;5.074;2023-04-01T13:01:23;100179.56;;;9.64;95.92
77311;BME280;66371;52.714;5.074;2023-04-01T13:09:45;100197.84;;;9.83;94.98
77311;BME280;66371;52.714;5.074;2023-04-01T13:20:44;100205.94;;;9.51;94.04
77311;BME280;66371;52.714;5.074;2023-04-01T13:28:25;100230.09;;;9.58;94.04
77311;BME280;66371;52.714;5.074;2023-04-01T13:44:35;100234.28;;;9.52;91.87
77311;BME280;66371;52.714;5.074;2023-04-01T13:53:30;100249.47;;;9.52;93.10
77311;BME280;66371;52.714;5.074;2023-04-01T13:56:08;100254.97;;;9.58;93.55
77311;BME280;66371;52.714;5.074;2023-04-01T13:58:47;100254.97;;;9.50;92.56
77311;BME280;66371;52.714;5.074;2023-04-01T14:07:10;100275.78;;;9.87;92.98
77311;BME280;66371;52.714;5.074;2023-04-01T14:10:07;100287.47;;;9.62;91.48
77311;BME280;66371;52.714;5.074;2023-04-01T14:13:04;100291.31;;;9.51;92.33
77311;BME280;66371;52.714;5.074;2023-04-01T14:24:18;100313.66;;;9.50;92.63
77311;BME280;66371;52.714;5.074;2023-04-01T14:30:10;100315.16;;;9.37;92.53
77311;BME280;66371;52.714;5.074;2023-04-01T14:33:01;100333.66;;;9.38;93.36
77311;BME280;66371;52.714;5.074;2023-04-01T14:35:38;100334.00;;;9.35;92.80
77311;BME280;66371;52.714;5.074;2023-04-01T14:51:46;100367.78;;;9.11;93.46
77311;BME280;66371;52.714;5.074;2023-04-01T14:54:13;100372.81;;;9.22;93.10
77311;BME280;66371;52.714;5.074;2023-04-01T14:56:50;100364.59;;;9.07;92.37
77311;BME280;66371;52.714;5.074;2023-04-01T15:01:59;100393.44;;;9.12;93.46
77311;BME280;66371;52.714;5.074;2023-04-01T15:12:45;100404.53;;;8.99;92.97
77311;BME280;66371;52.714;5.074;2023-04-01T15:18:19;100426.19;;;8.96;93.46
77311;BME280;66371;52.714;5.074;2023-04-01T15:24:03;100429.19;;;8.93;93.12
77311;BME280;66371;52.714;5.074;2023-04-01T15:35:09;100445.63;;;8.80;92.07
77311;BME280;66371;52.714;5.074;2023-04-01T15:40:52;100469.00;;;8.86;92.81
77311;BME280;66371;52.714;5.074;2023-04-01T15:48:42;100492.53;;;8.73;92.72
77311;BME280;66371;52.714;5.074;2023-04-01T15:59:56;100511.97;;;8.66;91.73
77311;BME280;66371;52.714;5.074;2023-04-01T16:22:06;100563.91;;;8.62;91.38
77311;BME280;66371;52.714;5.074;2023-04-01T16:29:40;100559.28;;;8.46;91.57
77311;BME280;66371;52.714;5.074;2023-04-01T16:32:19;100571.09;;;8.44;91.63
77311;BME280;66371;52.714;5.074;2023-04-01T16:37:36;100567.00;;;8.32;90.95
77311;BME280;66371;52.714;5.074;2023-04-01T16:51:17;100625.91;;;8.19;90.98
77311;BME280;66371;52.714;5.074;2023-04-01T16:54:02;100630.41;;;8.19;90.66
77311;BME280;66371;52.714;5.074;2023-04-01T16:59:35;100634.66;;;8.12;91.70
77311;BME280;66371;52.714;5.074;2023-04-01T17:21:39;100681.59;;;7.86;91.00
77311;BME280;66371;52.714;5.074;2023-04-01T17:35:21;100728.38;;;7.79;92.18
77311;BME280;66371;52.714;5.074;2023-04-01T17:40:57;100718.22;;;7.55;91.70
77311;BME280;66371;52.714;5.074;2023-04-01T17:43:57;100725.34;;;7.64;91.72
77311;BME280;66371;52.714;5.074;2023-04-01T17:57:32;100775.47;;;7.50;91.84
77311;BME280;66371;52.714;5.074;2023-04-01T18:08:12;100803.63;;;7.33;92.19
77311;BME280;66371;52.714;5.074;2023-04-01T18:24:27;100848.28;;;7.20;91.60
77311;BME280;66371;52.714;5.074;2023-04-01T18:29:28;100862.69;;;7.08;91.35
77311;BME280;66371;52.714;5.074;2023-04-01T18:34:53;100882.66;;;7.02;91.02
